sensor_id;sensor_type;location;lat;lon;timestamp;P1;durP1;ratioP1;P2;durP2;ratioP2
48026;SDS011;50714;49.208;5.364;2023-04-24T00:05:09;2.67;;;2.20;;
48026;SDS011;50714;49.208;5.364;2023-04-24T00:15:10;3.80;;;2.42;;
48026;SDS011;50714;49.208;5.364;2023-04-24T00:25:11;3.47;;;2.55;;
48026;SDS011;50714;49.208;5.364;2023-04-24T00:35:11;3.70;;;2.20;;
48026;SDS011;50714;49.208;5.364;2023-04-24T00:45:11;2.58;;;2.28;;
48026;SDS011;50714;49.208;5.364;2023-04-24T00:55:12;3.25;;;2.63;;
48026;SDS011;50714;49.208;5.364;2023-04-24T01:05:13;5.82;;;4.13;;
48026;SDS011;50714;49.208;5.364;2023-04-24T01:15:14;5.13;;;3.30;;
48026;SDS011;50714;49.208;5.364;2023-04-24T01:25:15;4.32;;;3.78;;
48026;SDS011;50714;49.208;5.364;2023-04-24T01:35:16;3.50;;;2.85;;
48026;SDS011;50714;49.208;5.364;2023-04-24T01:45:16;3.67;;;2.80;;
48026;SDS011;50714;49.208;5.364;2023-04-24T01:55:16;3.78;;;3.20;;
48026;SDS011;50714;49.208;5.364;2023-04-24T02:05:17;3.40;;;2.47;;
48026;SDS011;50714;49.208;5.364;2023-04-24T02:15:17;4.05;;;3.25;;
48026;SDS011;50714;49.208;5.364;2023-04-24T02:25:17;5.07;;;4.45;;
48026;SDS011;50714;49.208;5.364;2023-04-24T02:35:18;5.60;;;4.33;;
48026;SDS011;50714;49.208;5.364;2023-04-24T02:45:19;4.55;;;4.05;;
48026;SDS011;50714;49.208;5.364;2023-04-24T02:55:20;4.53;;;3.95;;
48026;SDS011;50714;49.208;5.364;2023-04-24T03:05:20;5.40;;;4.82;;
48026;SDS011;50714;49.208;5.364;2023-04-24T03:15:21;5.85;;;4.93;;
48026;SDS011;50714;49.208;5.364;2023-04-24T03:25:21;5.22;;;4.72;;
48026;SDS011;50714;49.208;5.364;2023-04-24T03:35:22;5.38;;;4.47;;
48026;SDS011;50714;49.208;5.364;2023-04-24T03:45:22;5.72;;;4.10;;
48026;SDS011;50714;49.208;5.364;2023-04-24T03:55:24;5.93;;;5.32;;
48026;SDS011;50714;49.208;5.364;2023-04-24T04:05:24;8.50;;;7.23;;
48026;SDS011;50714;49.208;5.364;2023-04-24T04:15:24;9.55;;;8.02;;
48026;SDS011;50714;49.208;5.364;2023-04-24T04:25:25;11.43;;;9.60;;
48026;SDS011;50714;49.208;5.364;2023-04-24T04:35:25;6.80;;;5.60;;
48026;SDS011;50714;49.208;5.364;2023-04-24T04:45:26;5.05;;;4.32;;
48026;SDS011;50714;49.208;5.364;2023-04-24T04:55:26;5.70;;;4.05;;
48026;SDS011;50714;49.208;5.364;2023-04-24T05:05:27;6.15;;;3.72;;
48026;SDS011;50714;49.208;5.364;2023-04-24T05:15:28;4.27;;;3.27;;
48026;SDS011;50714;49.208;5.364;2023-04-24T05:25:28;4.13;;;2.92;;
48026;SDS011;50714;49.208;5.364;2023-04-24T05:35:28;3.10;;;2.80;;
48026;SDS011;50714;49.208;5.364;2023-04-24T05:45:29;5.18;;;4.28;;
48026;SDS011;50714;49.208;5.364;2023-04-24T05:55:30;5.32;;;4.15;;
48026;SDS011;50714;49.208;5.364;2023-04-24T06:05:31;6.07;;;4.32;;
48026;SDS011;50714;49.208;5.364;2023-04-24T06:15:31;6.50;;;5.45;;
48026;SDS011;50714;49.208;5.364;2023-04-24T06:25:32;6.88;;;6.18;;
48026;SDS011;50714;49.208;5.364;2023-04-24T06:35:32;6.25;;;4.70;;
48026;SDS011;50714;49.208;5.364;2023-04-24T06:45:33;5.80;;;4.32;;
48026;SDS011;50714;49.208;5.364;2023-04-24T06:55:33;5.32;;;4.38;;
48026;SDS011;50714;49.208;5.364;2023-04-24T07:05:35;7.60;;;4.93;;
48026;SDS011;50714;49.208;5.364;2023-04-24T07:15:38;6.55;;;4.22;;
48026;SDS011;50714;49.208;5.364;2023-04-24T07:25:39;6.32;;;5.05;;
48026;SDS011;50714;49.208;5.364;2023-04-24T07:35:40;7.28;;;6.35;;
48026;SDS011;50714;49.208;5.364;2023-04-24T07:45:40;7.30;;;6.50;;
48026;SDS011;50714;49.208;5.364;2023-04-24T07:55:40;6.55;;;5.10;;
48026;SDS011;50714;49.208;5.364;2023-04-24T08:05:41;5.97;;;4.68;;
48026;SDS011;50714;49.208;5.364;2023-04-24T08:15:42;8.82;;;6.63;;
48026;SDS011;50714;49.208;5.364;2023-04-24T08:25:43;5.95;;;5.18;;
48026;SDS011;50714;49.208;5.364;2023-04-24T08:35:43;6.18;;;5.13;;
48026;SDS011;50714;49.208;5.364;2023-04-24T08:45:43;5.78;;;4.53;;
48026;SDS011;50714;49.208;5.364;2023-04-24T08:55:44;10.73;;;7.93;;
48026;SDS011;50714;49.208;5.364;2023-04-24T09:05:47;5.80;;;4.63;;
48026;SDS011;50714;49.208;5.364;2023-04-24T09:15:50;5.05;;;4.40;;
48026;SDS011;50714;49.208;5.364;2023-04-24T09:25:54;7.03;;;4.90;;
48026;SDS011;50714;49.208;5.364;2023-04-24T09:35:55;7.35;;;6.60;;
48026;SDS011;50714;49.208;5.364;2023-04-24T09:45:57;9.87;;;7.20;;
48026;SDS011;50714;49.208;5.364;2023-04-24T09:56:02;14.95;;;11.98;;
48026;SDS011;50714;49.208;5.364;2023-04-24T10:06:11;10.75;;;8.57;;
48026;SDS011;50714;49.208;5.364;2023-04-24T10:16:13;12.10;;;9.63;;
48026;SDS011;50714;49.208;5.364;2023-04-24T10:26:14;10.40;;;8.52;;
48026;SDS011;50714;49.208;5.364;2023-04-24T10:36:17;7.50;;;6.70;;
48026;SDS011;50714;49.208;5.364;2023-04-24T10:46:19;6.68;;;5.45;;
48026;SDS011;50714;49.208;5.364;2023-04-24T10:56:21;6.18;;;5.15;;
48026;SDS011;50714;49.208;5.364;2023-04-24T11:06:40;5.68;;;4.65;;
48026;SDS011;50714;49.208;5.364;2023-04-24T11:16:53;4.43;;;3.42;;
48026;SDS011;50714;49.208;5.364;2023-04-24T11:37:04;4.00;;;3.35;;
48026;SDS011;50714;49.208;5.364;2023-04-24T11:47:05;5.30;;;3.83;;
48026;SDS011;50714;49.208;5.364;2023-04-24T11:57:06;9.20;;;7.32;;
48026;SDS011;50714;49.208;5.364;2023-04-24T12:07:07;7.90;;;6.30;;
48026;SDS011;50714;49.208;5.364;2023-04-24T12:17:10;9.65;;;6.97;;
48026;SDS011;50714;49.208;5.364;2023-04-24T12:27:19;5.43;;;4.72;;
48026;SDS011;50714;49.208;5.364;2023-04-24T12:37:20;8.25;;;6.20;;
48026;SDS011;50714;49.208;5.364;2023-04-24T12:47:24;8.00;;;5.93;;
48026;SDS011;50714;49.208;5.364;2023-04-24T12:57:25;5.93;;;4.05;;
48026;SDS011;50714;49.208;5.364;2023-04-24T13:07:27;4.88;;;4.00;;
48026;SDS011;50714;49.208;5.364;2023-04-24T13:17:27;4.60;;;3.85;;
48026;SDS011;50714;49.208;5.364;2023-04-24T13:27:28;4.88;;;4.15;;
48026;SDS011;50714;49.208;5.364;2023-04-24T13:37:28;4.50;;;3.65;;
48026;SDS011;50714;49.208;5.364;2023-04-24T13:47:28;3.38;;;2.83;;
48026;SDS011;50714;49.208;5.364;2023-04-24T13:57:29;4.90;;;3.50;;
48026;SDS011;50714;49.208;5.364;2023-04-24T14:07:31;5.57;;;4.13;;
48026;SDS011;50714;49.208;5.364;2023-04-24T14:17:31;4.40;;;3.40;;
48026;SDS011;50714;49.208;5.364;2023-04-24T14:27:32;4.57;;;3.90;;
48026;SDS011;50714;49.208;5.364;2023-04-24T14:37:34;8.02;;;5.80;;
48026;SDS011;50714;49.208;5.364;2023-04-24T14:47:36;4.00;;;3.00;;
48026;SDS011;50714;49.208;5.364;2023-04-24T14:57:36;8.23;;;5.95;;
48026;SDS011;50714;49.208;5.364;2023-04-24T15:07:37;4.22;;;3.60;;
48026;SDS011;50714;49.208;5.364;2023-04-24T15:17:38;4.45;;;3.58;;
48026;SDS011;50714;49.208;5.364;2023-04-24T15:27:41;4.43;;;3.97;;
48026;SDS011;50714;49.208;5.364;2023-04-24T15:37:45;3.67;;;2.60;;
48026;SDS011;50714;49.208;5.364;2023-04-24T15:47:45;10.60;;;8.02;;
48026;SDS011;50714;49.208;5.364;2023-04-24T15:57:46;11.65;;;8.68;;
48026;SDS011;50714;49.208;5.364;2023-04-24T16:07:46;10.98;;;8.32;;
48026;SDS011;50714;49.208;5.364;2023-04-24T16:17:48;6.45;;;5.72;;
48026;SDS011;50714;49.208;5.364;2023-04-24T16:27:49;4.68;;;4.05;;
48026;SDS011;50714;49.208;5.364;2023-04-24T16:37:50;4.57;;;3.70;;
48026;SDS011;50714;49.208;5.364;2023-04-24T16:47:50;2.67;;;2.20;;
48026;SDS011;50714;49.208;5.364;2023-04-24T16:57:51;1.88;;;1.60;;
48026;SDS011;50714;49.208;5.364;2023-04-24T17:07:51;4.00;;;3.08;;
48026;SDS011;50714;49.208;5.364;2023-04-24T17:17:52;2.95;;;2.70;;
48026;SDS011;50714;49.208;5.364;2023-04-24T17:27:52;3.53;;;3.22;;
48026;SDS011;50714;49.208;5.364;2023-04-24T17:37:53;5.18;;;3.03;;
48026;SDS011;50714;49.208;5.364;2023-04-24T17:47:53;3.42;;;2.78;;
48026;SDS011;50714;49.208;5.364;2023-04-24T17:57:55;5.70;;;3.97;;
48026;SDS011;50714;49.208;5.364;2023-04-24T18:07:56;4.30;;;3.78;;
48026;SDS011;50714;49.208;5.364;2023-04-24T18:17:56;4.75;;;3.50;;
48026;SDS011;50714;49.208;5.364;2023-04-24T18:27:57;4.43;;;3.88;;
48026;SDS011;50714;49.208;5.364;2023-04-24T18:37:57;3.50;;;2.83;;
48026;SDS011;50714;49.208;5.364;2023-04-24T18:47:57;3.30;;;2.67;;
48026;SDS011;50714;49.208;5.364;2023-04-24T18:57:58;7.35;;;5.15;;
48026;SDS011;50714;49.208;5.364;2023-04-24T19:07:58;3.90;;;3.08;;
48026;SDS011;50714;49.208;5.364;2023-04-24T19:17:59;8.67;;;5.93;;
48026;SDS011;50714;49.208;5.364;2023-04-24T19:27:59;4.47;;;3.35;;
48026;SDS011;50714;49.208;5.364;2023-04-24T19:38:00;3.00;;;2.60;;
48026;SDS011;50714;49.208;5.364;2023-04-24T19:48:00;3.95;;;3.13;;
48026;SDS011;50714;49.208;5.364;2023-04-24T19:58:01;4.93;;;4.15;;
48026;SDS011;50714;49.208;5.364;2023-04-24T20:08:01;3.85;;;3.20;;
48026;SDS011;50714;49.208;5.364;2023-04-24T20:18:02;3.05;;;2.60;;
48026;SDS011;50714;49.208;5.364;2023-04-24T20:28:02;4.25;;;3.63;;
48026;SDS011;50714;49.208;5.364;2023-04-24T20:38:03;2.10;;;1.80;;
48026;SDS011;50714;49.208;5.364;2023-04-24T20:48:03;2.33;;;2.10;;
48026;SDS011;50714;49.208;5.364;2023-04-24T20:58:05;2.10;;;1.90;;
48026;SDS011;50714;49.208;5.364;2023-04-24T21:08:06;2.67;;;2.00;;
48026;SDS011;50714;49.208;5.364;2023-04-24T21:18:06;2.13;;;1.83;;
48026;SDS011;50714;49.208;5.364;2023-04-24T21:28:06;2.15;;;1.85;;
48026;SDS011;50714;49.208;5.364;2023-04-24T21:38:07;3.88;;;3.05;;
48026;SDS011;50714;49.208;5.364;2023-04-24T21:48:07;4.38;;;3.20;;
48026;SDS011;50714;49.208;5.364;2023-04-24T21:58:07;11.98;;;7.93;;
48026;SDS011;50714;49.208;5.364;2023-04-24T22:08:08;7.45;;;4.93;;
48026;SDS011;50714;49.208;5.364;2023-04-24T22:18:09;6.20;;;4.57;;
48026;SDS011;50714;49.208;5.364;2023-04-24T22:28:10;3.70;;;2.80;;
48026;SDS011;50714;49.208;5.364;2023-04-24T22:38:11;2.65;;;2.38;;
48026;SDS011;50714;49.208;5.364;2023-04-24T22:48:11;3.38;;;2.60;;
48026;SDS011;50714;49.208;5.364;2023-04-24T22:58:11;9.70;;;6.28;;
48026;SDS011;50714;49.208;5.364;2023-04-24T23:08:12;7.25;;;5.53;;
48026;SDS011;50714;49.208;5.364;2023-04-24T23:18:12;5.93;;;4.72;;
48026;SDS011;50714;49.208;5.364;2023-04-24T23:28:12;8.50;;;6.72;;
48026;SDS011;50714;49.208;5.364;2023-04-24T23:38:13;21.23;;;14.73;;
48026;SDS011;50714;49.208;5.364;2023-04-24T23:48:13;11.43;;;7.57;;
48026;SDS011;50714;49.208;5.364;2023-04-24T23:58:13;4.95;;;4.43;;
